Sentell, Louisiana
Current Conditions -  °F | °C
As of 7:53 PM on Monday 24 Nov 2014 (Local Time) from KDTN Reporting Station
Clear Clear  
Wind Chill: 47°   Ceiling: Unl
Heat Index: 47°   Visibility: 10mi
Dew Point: 31°   Wind: 0mph
Humidity: 54%   Direction: NA
Pressure: 30.1"   Gusts: NA
Location:  32.5955°N, 93.8642°W
Report Text: KDTN 250153Z AUTO 00000KT 10SM CLR 08/M01 A3010 RMK AO2 SLP191 T00831006
Loading
Personal Weather Stations






























Interactive Weather Map New forecast layout! Learn more

10-Day Weather Forecast

Advertisements
Track Severe Weather on mobile